createdAt,value
2023-02-22T00:00:46.229Z,4.50
2023-02-22T00:03:18.986Z,4.60
2023-02-22T00:05:47.214Z,4.60
2023-02-22T00:08:16.021Z,4.60
2023-02-22T00:10:42.960Z,4.40
2023-02-22T00:13:13.231Z,4.30
2023-02-22T00:15:44.354Z,4.30
2023-02-22T00:18:14.694Z,4.40
2023-02-22T00:20:41.785Z,4.40
2023-02-22T00:23:19.024Z,4.40
2023-02-22T00:25:46.999Z,4.40
2023-02-22T00:28:15.229Z,4.30
2023-02-22T00:30:44.908Z,4.30
2023-02-22T00:33:13.380Z,4.10
2023-02-22T00:35:40.223Z,4.00
2023-02-22T00:38:07.589Z,4.00
2023-02-22T00:40:35.452Z,4.00
2023-02-22T00:43:04.611Z,4.00
2023-02-22T00:45:32.820Z,4.00
2023-02-22T00:48:00.487Z,4.20
2023-02-22T00:50:29.585Z,4.10
2023-02-22T00:52:57.815Z,4.20
2023-02-22T00:55:28.292Z,4.20
2023-02-22T00:57:55.667Z,4.10
2023-02-22T01:00:25.685Z,4.00
2023-02-22T01:02:52.435Z,3.90
2023-02-22T01:05:24.151Z,4.00
2023-02-22T01:07:51.448Z,4.00
2023-02-22T01:10:21.005Z,3.90
2023-02-22T01:12:48.449Z,3.90
2023-02-22T01:15:16.868Z,3.80
2023-02-22T01:17:44.056Z,3.80
2023-02-22T01:20:14.777Z,3.80
2023-02-22T01:22:49.873Z,3.70
2023-02-22T01:25:19.881Z,3.70
2023-02-22T01:27:46.975Z,3.70
2023-02-22T01:30:15.084Z,3.80
2023-02-22T01:32:42.713Z,3.70
2023-02-22T01:35:13.734Z,3.60
2023-02-22T01:37:42.084Z,3.60
2023-02-22T01:40:11.190Z,3.60
2023-02-22T01:42:37.918Z,3.50
2023-02-22T01:45:35.267Z,3.50
2023-02-22T01:48:08.675Z,3.50
2023-02-22T01:50:42.198Z,3.50
2023-02-22T01:53:13.909Z,3.50
2023-02-22T01:55:41.118Z,3.50
2023-02-22T01:58:09.006Z,3.50
2023-02-22T02:00:36.357Z,3.50
2023-02-22T02:03:14.975Z,3.50
2023-02-22T02:05:42.777Z,3.40
2023-02-22T02:08:36.154Z,3.40
2023-02-22T02:11:08.654Z,3.50
2023-02-22T02:13:36.853Z,3.50
2023-02-22T02:16:04.065Z,3.50
2023-02-22T02:18:32.638Z,3.40
2023-02-22T02:21:38.439Z,3.50
2023-02-22T02:24:16.679Z,3.50
2023-02-22T02:26:49.262Z,3.40
2023-02-22T02:29:55.377Z,3.30
2023-02-22T02:32:28.067Z,3.30
2023-02-22T02:35:05.266Z,3.40
2023-02-22T02:37:44.021Z,3.40
2023-02-22T02:40:19.752Z,3.30
2023-02-22T02:43:14.060Z,3.40
2023-02-22T02:46:10.069Z,3.30
2023-02-22T02:48:41.605Z,3.40
2023-02-22T02:51:10.472Z,3.30
2023-02-22T02:53:40.631Z,3.20
2023-02-22T02:56:07.633Z,3.20
2023-02-22T02:58:42.652Z,3.20
2023-02-22T03:01:11.514Z,3.20
2023-02-22T03:04:10.449Z,3.30
2023-02-22T03:07:04.626Z,3.10
2023-02-22T03:09:49.153Z,3.10
2023-02-22T03:12:38.571Z,3.10
2023-02-22T03:15:29.640Z,3.00
2023-02-22T03:18:08.106Z,3.00
2023-02-22T03:20:50.260Z,3.00
2023-02-22T03:23:27.046Z,3.00
2023-02-22T03:26:12.007Z,3.00
2023-02-22T03:28:42.072Z,3.00
2023-02-22T03:31:18.155Z,3.00
2023-02-22T03:33:59.644Z,2.90
2023-02-22T03:36:32.544Z,3.00
2023-02-22T03:39:04.230Z,3.10
2023-02-22T03:41:31.924Z,3.00
2023-02-22T03:44:06.240Z,3.00
2023-02-22T03:46:35.264Z,3.00
2023-02-22T03:49:14.515Z,3.00
2023-02-22T03:51:41.409Z,2.90
2023-02-22T03:54:09.389Z,2.90
2023-02-22T03:56:50.044Z,3.00
2023-02-22T03:59:17.242Z,3.00
2023-02-22T04:01:43.960Z,3.00
2023-02-22T04:04:10.716Z,3.00
2023-02-22T04:06:37.700Z,2.90
2023-02-22T04:09:04.600Z,2.90
2023-02-22T04:11:31.340Z,2.90
2023-02-22T04:13:58.417Z,2.90
2023-02-22T04:16:25.149Z,2.80
2023-02-22T04:18:51.924Z,2.80
2023-02-22T04:21:19.028Z,2.80
2023-02-22T04:23:45.846Z,2.80
2023-02-22T04:26:13.026Z,2.80
2023-02-22T04:28:39.801Z,2.70
2023-02-22T04:31:06.674Z,2.70
2023-02-22T04:33:33.610Z,2.70
2023-02-22T04:36:00.316Z,2.60
2023-02-22T04:38:27.169Z,2.50
2023-02-22T04:40:55.935Z,2.50
2023-02-22T04:43:22.787Z,2.50
2023-02-22T04:45:49.568Z,2.40
2023-02-22T04:48:16.626Z,2.50
2023-02-22T04:50:43.345Z,2.50
2023-02-22T04:53:11.075Z,2.60
2023-02-22T04:55:37.758Z,2.40
2023-02-22T04:58:04.543Z,2.40
2023-02-22T05:00:31.246Z,2.40
2023-02-22T05:02:58.036Z,2.40
2023-02-22T05:05:24.966Z,2.30
2023-02-22T05:07:51.728Z,2.30
2023-02-22T05:10:19.014Z,2.30
2023-02-22T05:12:45.920Z,2.30
2023-02-22T05:15:17.218Z,2.30
2023-02-22T05:17:43.938Z,2.30
2023-02-22T05:20:23.321Z,2.20
2023-02-22T05:22:51.824Z,2.20
2023-02-22T05:25:20.348Z,2.20
2023-02-22T05:27:52.721Z,2.40
2023-02-22T05:30:24.341Z,2.40
2023-02-22T05:32:52.102Z,2.40
2023-02-22T05:35:24.281Z,2.50
2023-02-22T05:37:51.293Z,2.50
2023-02-22T05:40:23.851Z,2.40
2023-02-22T05:42:51.181Z,2.30
2023-02-22T05:45:20.138Z,2.20
2023-02-22T05:47:47.491Z,2.20
2023-02-22T05:50:15.158Z,2.20
2023-02-22T05:52:41.877Z,2.20
2023-02-22T05:55:10.263Z,2.30
2023-02-22T05:57:39.180Z,2.10
2023-02-22T06:00:08.237Z,2.10
2023-02-22T06:02:34.978Z,2.00
2023-02-22T06:05:01.663Z,1.90
2023-02-22T06:07:28.374Z,1.90
2023-02-22T06:09:55.145Z,2.00
2023-02-22T06:12:21.868Z,2.00
2023-02-22T06:14:48.549Z,1.90
2023-02-22T06:17:16.116Z,1.90
2023-02-22T06:19:42.812Z,2.00
2023-02-22T06:22:19.859Z,1.90
2023-02-22T06:24:46.610Z,1.90
2023-02-22T06:27:13.384Z,1.90
2023-02-22T06:29:44.405Z,2.00
2023-02-22T06:32:11.278Z,2.00
2023-02-22T06:34:38.120Z,2.00
2023-02-22T06:37:04.826Z,2.10
2023-02-22T06:39:31.542Z,2.00
2023-02-22T06:41:59.904Z,2.10
2023-02-22T06:44:26.657Z,2.10
2023-02-22T06:46:53.430Z,2.20
2023-02-22T06:49:20.897Z,2.20
2023-02-22T06:51:48.105Z,2.30
2023-02-22T06:54:15.031Z,2.40
2023-02-22T06:56:41.830Z,2.60
2023-02-22T06:59:08.624Z,2.90
2023-02-22T07:01:35.994Z,3.60
2023-02-22T07:04:03.463Z,4.50
2023-02-22T07:06:30.226Z,5.10
2023-02-22T07:08:57.033Z,5.10
2023-02-22T07:11:23.826Z,4.80
2023-02-22T07:13:50.650Z,4.60
2023-02-22T07:16:17.439Z,4.20
2023-02-22T07:18:44.235Z,4.20
2023-02-22T07:21:10.956Z,4.30
2023-02-22T07:23:38.303Z,4.90
2023-02-22T07:26:06.426Z,5.80
2023-02-22T07:28:33.215Z,6.80
2023-02-22T07:31:01.371Z,7.60
2023-02-22T07:33:28.228Z,8.00
2023-02-22T07:35:54.991Z,8.20
2023-02-22T07:38:21.683Z,8.40
2023-02-22T07:40:48.576Z,8.40
2023-02-22T07:43:23.508Z,9.00
2023-02-22T07:45:53.914Z,9.10
2023-02-22T07:48:22.891Z,8.70
2023-02-22T07:50:49.812Z,8.40
2023-02-22T07:53:31.698Z,8.80
2023-02-22T07:56:02.666Z,8.80
2023-02-22T07:58:30.652Z,9.20
2023-02-22T08:00:58.011Z,8.80
2023-02-22T08:03:26.493Z,8.20
2023-02-22T08:05:56.093Z,8.70
2023-02-22T08:08:23.314Z,8.90
2023-02-22T08:10:51.234Z,8.70
2023-02-22T08:13:18.897Z,7.50
2023-02-22T08:15:47.180Z,6.90
2023-02-22T08:18:16.281Z,6.70
2023-02-22T08:20:44.358Z,7.20
2023-02-22T08:23:13.087Z,8.00
2023-02-22T08:25:39.851Z,8.40
2023-02-22T08:28:09.637Z,9.00
2023-02-22T08:30:40.083Z,9.80
2023-02-22T08:33:07.461Z,10.50
2023-02-22T08:35:34.560Z,11.40
2023-02-22T08:38:04.183Z,11.70
2023-02-22T08:40:34.578Z,11.60
2023-02-22T08:43:01.737Z,11.80
2023-02-22T08:45:28.919Z,12.20
2023-02-22T08:47:55.926Z,12.90
2023-02-22T08:50:33.687Z,13.20
2023-02-22T08:53:02.005Z,13.40
2023-02-22T08:55:34.095Z,12.70
2023-02-22T08:58:02.957Z,11.30
2023-02-22T09:00:33.137Z,11.30
2023-02-22T09:03:02.036Z,11.80
2023-02-22T09:05:31.335Z,12.00
2023-02-22T09:07:58.646Z,12.90
2023-02-22T09:10:28.684Z,12.30
2023-02-22T09:12:55.906Z,12.20
2023-02-22T09:15:24.999Z,13.00
2023-02-22T09:17:52.668Z,13.00
2023-02-22T09:20:21.328Z,12.20
2023-02-22T09:22:49.043Z,13.20
2023-02-22T09:25:17.704Z,13.20
2023-02-22T09:27:48.879Z,13.50
2023-02-22T09:30:36.425Z,13.20
2023-02-22T09:33:20.417Z,13.20
2023-02-22T09:35:49.835Z,13.80
2023-02-22T09:38:19.496Z,13.10
2023-02-22T09:40:49.889Z,12.50
2023-02-22T09:43:23.681Z,12.90
2023-02-22T09:46:21.390Z,13.40
2023-02-22T09:49:21.298Z,13.10
2023-02-22T09:51:50.616Z,13.30
2023-02-22T09:54:51.883Z,13.70
2023-02-22T09:57:26.794Z,14.30
2023-02-22T10:00:13.277Z,15.20
2023-02-22T10:02:48.944Z,14.90
2023-02-22T10:05:20.062Z,15.60
2023-02-22T10:08:12.738Z,15.10
2023-02-22T10:10:44.770Z,14.90
2023-02-22T10:13:34.789Z,14.20
2023-02-22T10:16:05.223Z,13.50
2023-02-22T10:19:03.119Z,13.60
2023-02-22T10:22:00.957Z,13.30
2023-02-22T10:24:38.434Z,13.90
2023-02-22T10:27:08.476Z,14.40
2023-02-22T10:29:52.340Z,14.90
2023-02-22T10:32:31.416Z,15.10
2023-02-22T10:35:00.205Z,15.10
2023-02-22T10:37:34.642Z,15.10
2023-02-22T10:40:18.751Z,14.50
2023-02-22T10:42:45.554Z,14.80
2023-02-22T10:45:27.258Z,15.50
2023-02-22T10:47:59.019Z,15.90
2023-02-22T10:50:31.853Z,15.90
2023-02-22T10:52:58.645Z,16.90
2023-02-22T10:55:25.543Z,16.70
2023-02-22T10:58:00.388Z,17.10
2023-02-22T11:00:37.303Z,17.30
2023-02-22T11:03:22.475Z,17.80
2023-02-22T11:05:49.955Z,17.30
2023-02-22T11:08:16.693Z,19.10
2023-02-22T11:10:43.804Z,18.80
2023-02-22T11:13:18.869Z,20.90
2023-02-22T11:15:45.729Z,20.50
2023-02-22T11:18:31.313Z,20.60
2023-02-22T11:21:14.007Z,19.10
2023-02-22T11:23:44.729Z,20.00
2023-02-22T11:26:15.236Z,19.60
2023-02-22T11:28:49.401Z,19.60
2023-02-22T11:31:22.930Z,19.20
2023-02-22T11:34:03.813Z,19.80
2023-02-22T11:36:40.547Z,20.60
2023-02-22T11:39:25.591Z,20.70
2023-02-22T11:41:52.577Z,20.20
2023-02-22T11:44:24.473Z,20.20
2023-02-22T11:46:55.730Z,18.80
2023-02-22T11:49:46.054Z,20.10
2023-02-22T11:52:34.740Z,20.40
2023-02-22T11:55:41.229Z,19.80
2023-02-22T11:58:29.777Z,18.80
2023-02-22T12:01:39.179Z,19.40
2023-02-22T12:04:27.660Z,19.70
2023-02-22T12:07:20.398Z,19.90
2023-02-22T12:10:02.239Z,20.80
2023-02-22T12:13:03.673Z,20.70
2023-02-22T12:15:42.935Z,21.20
2023-02-22T12:18:17.923Z,20.10
2023-02-22T12:20:55.629Z,20.00
2023-02-22T12:23:30.803Z,21.00
2023-02-22T12:25:58.681Z,19.20
2023-02-22T12:28:38.188Z,19.10
2023-02-22T12:31:29.354Z,19.40
2023-02-22T12:34:09.438Z,18.90
2023-02-22T12:36:43.726Z,18.80
2023-02-22T12:39:29.182Z,19.50
2023-02-22T12:41:57.206Z,19.50
2023-02-22T12:44:33.170Z,18.70
2023-02-22T12:47:02.367Z,18.50
2023-02-22T12:49:56.743Z,19.30
2023-02-22T12:52:35.728Z,19.00
2023-02-22T12:55:18.066Z,19.00
2023-02-22T12:57:52.619Z,19.00
2023-02-22T13:00:48.054Z,18.20
2023-02-22T13:03:38.686Z,18.80
2023-02-22T13:06:11.363Z,17.60
2023-02-22T13:08:47.142Z,18.30
2023-02-22T13:11:35.118Z,18.00
2023-02-22T13:14:13.481Z,17.50
2023-02-22T13:17:04.076Z,17.20
2023-02-22T13:19:49.341Z,17.10
2023-02-22T13:22:28.123Z,16.80
2023-02-22T13:25:16.249Z,16.50
2023-02-22T13:28:21.500Z,16.20
2023-02-22T13:31:11.716Z,16.30
2023-02-22T13:33:57.253Z,16.20
2023-02-22T13:36:38.572Z,16.30
2023-02-22T13:39:27.933Z,16.30
2023-02-22T13:42:28.237Z,16.20
2023-02-22T13:45:19.128Z,16.30
2023-02-22T13:48:11.741Z,16.50
2023-02-22T13:51:07.794Z,16.50
2023-02-22T13:53:47.821Z,16.20
2023-02-22T13:56:15.737Z,16.30
2023-02-22T13:59:00.254Z,16.10
2023-02-22T14:01:46.366Z,16.10
2023-02-22T14:04:27.830Z,15.90
2023-02-22T14:07:02.947Z,15.90
2023-02-22T14:09:49.907Z,16.10
2023-02-22T14:12:28.925Z,15.90
2023-02-22T14:15:27.760Z,15.70
2023-02-22T14:18:03.227Z,16.00
2023-02-22T14:20:40.398Z,15.90
2023-02-22T14:23:33.654Z,15.90
2023-02-22T14:26:37.140Z,15.80
2023-02-22T14:29:09.594Z,16.00
2023-02-22T14:31:45.099Z,16.00
2023-02-22T14:34:30.832Z,16.00
2023-02-22T14:37:07.700Z,16.00
2023-02-22T14:39:39.960Z,16.10
2023-02-22T14:42:27.886Z,16.10
2023-02-22T14:45:09.905Z,16.10
2023-02-22T14:47:40.993Z,16.10
2023-02-22T14:50:16.578Z,16.20
2023-02-22T14:52:46.538Z,16.20
2023-02-22T14:55:29.849Z,16.30
2023-02-22T14:58:10.603Z,16.10
2023-02-22T15:00:37.361Z,15.90
2023-02-22T15:03:04.910Z,16.10
2023-02-22T15:05:40.371Z,16.00
2023-02-22T15:08:09.506Z,16.10
2023-02-22T15:10:45.927Z,16.00
2023-02-22T15:13:23.887Z,15.80
2023-02-22T15:16:01.787Z,15.70
2023-02-22T15:18:41.356Z,15.60
2023-02-22T15:21:13.491Z,15.60
2023-02-22T15:24:02.046Z,15.50
2023-02-22T15:26:37.364Z,15.50
2023-02-22T15:29:11.134Z,15.40
2023-02-22T15:31:40.440Z,15.20
2023-02-22T15:34:27.160Z,15.10
2023-02-22T15:36:56.425Z,15.10
2023-02-22T15:39:29.675Z,15.00
2023-02-22T15:42:07.906Z,14.90
2023-02-22T15:44:40.441Z,14.80
2023-02-22T15:47:19.077Z,14.70
2023-02-22T15:49:46.250Z,14.60
2023-02-22T15:52:23.325Z,14.50
2023-02-22T15:54:51.824Z,14.40
2023-02-22T15:57:25.292Z,14.50
2023-02-22T15:59:55.890Z,14.30
2023-02-22T16:02:37.139Z,14.20
2023-02-22T16:05:09.046Z,14.10
2023-02-22T16:07:46.898Z,14.10
2023-02-22T16:10:28.757Z,14.00
2023-02-22T16:13:30.497Z,14.00
2023-02-22T16:16:03.750Z,13.90
2023-02-22T16:18:33.716Z,13.90
2023-02-22T16:21:05.674Z,13.80
2023-02-22T16:23:33.559Z,13.70
2023-02-22T16:26:26.652Z,13.60
2023-02-22T16:29:00.100Z,13.50
2023-02-22T16:31:38.605Z,13.60
2023-02-22T16:34:08.117Z,13.50
2023-02-22T16:36:46.953Z,13.40
2023-02-22T16:39:36.064Z,13.30
2023-02-22T16:42:05.039Z,13.20
2023-02-22T16:44:31.819Z,13.10
2023-02-22T16:47:00.604Z,13.00
2023-02-22T16:49:30.075Z,13.00
2023-02-22T16:52:01.610Z,12.90
2023-02-22T16:54:36.501Z,12.90
2023-02-22T16:57:04.640Z,12.80
2023-02-22T16:59:36.293Z,12.80
2023-02-22T17:02:07.471Z,12.80
2023-02-22T17:04:34.802Z,12.70
2023-02-22T17:07:05.024Z,12.60
2023-02-22T17:09:32.856Z,12.60
2023-02-22T17:12:00.247Z,12.50
2023-02-22T17:14:36.438Z,12.30
2023-02-22T17:17:03.472Z,12.20
2023-02-22T17:19:30.306Z,12.10
2023-02-22T17:21:57.128Z,12.00
2023-02-22T17:24:29.160Z,12.00
2023-02-22T17:26:57.543Z,12.40
2023-02-22T17:29:24.386Z,11.80
2023-02-22T17:31:52.877Z,11.70
2023-02-22T17:34:20.335Z,11.70
2023-02-22T17:36:47.122Z,11.60
2023-02-22T17:39:14.023Z,11.50
2023-02-22T17:41:41.032Z,11.50
2023-02-22T17:44:08.167Z,11.40
2023-02-22T17:46:36.484Z,11.30
2023-02-22T17:49:03.428Z,11.20
2023-02-22T17:51:30.452Z,11.20
2023-02-22T17:53:57.466Z,11.10
2023-02-22T17:56:24.439Z,11.10
2023-02-22T17:58:53.771Z,11.00
2023-02-22T18:01:27.997Z,11.00
2023-02-22T18:03:57.883Z,10.90
2023-02-22T18:06:28.455Z,10.90
2023-02-22T18:08:57.258Z,10.90
2023-02-22T18:11:26.455Z,10.80
2023-02-22T18:13:58.196Z,10.90
2023-02-22T18:16:26.131Z,10.90
2023-02-22T18:18:54.340Z,10.90
2023-02-22T18:21:21.723Z,10.80
2023-02-22T18:23:48.526Z,10.60
2023-02-22T18:26:17.483Z,10.60
2023-02-22T18:28:44.678Z,10.50
2023-02-22T18:31:17.251Z,10.40
2023-02-22T18:33:45.818Z,10.40
2023-02-22T18:36:14.238Z,10.30
2023-02-22T18:38:43.336Z,10.30
2023-02-22T18:41:16.352Z,10.20
2023-02-22T18:43:46.604Z,10.10
2023-02-22T18:46:18.335Z,10.00
2023-02-22T18:48:47.161Z,10.00
2023-02-22T18:51:17.530Z,9.90
2023-02-22T18:53:47.064Z,9.90
2023-02-22T18:56:21.778Z,9.90
2023-02-22T18:58:52.481Z,10.00
2023-02-22T19:01:19.408Z,9.90
2023-02-22T19:03:49.632Z,9.90
2023-02-22T19:06:18.297Z,9.90
2023-02-22T19:08:46.120Z,10.00
2023-02-22T19:11:19.286Z,10.00
2023-02-22T19:13:51.231Z,9.90
2023-02-22T19:16:20.505Z,9.90
2023-02-22T19:18:49.721Z,9.80
2023-02-22T19:21:16.823Z,9.70
2023-02-22T19:23:47.912Z,9.60
2023-02-22T19:26:20.233Z,9.50
2023-02-22T19:28:47.940Z,9.50
2023-02-22T19:31:18.317Z,9.40
2023-02-22T19:33:46.418Z,9.30
2023-02-22T19:36:14.604Z,9.30
2023-02-22T19:38:41.749Z,9.30
2023-02-22T19:41:12.317Z,9.20
2023-02-22T19:43:39.234Z,9.20
2023-02-22T19:46:07.328Z,9.10
2023-02-22T19:48:34.771Z,9.00
2023-02-22T19:51:07.212Z,8.90
2023-02-22T19:53:35.187Z,8.90
2023-02-22T19:56:09.654Z,8.80
2023-02-22T19:58:41.123Z,8.80
2023-02-22T20:01:22.818Z,8.80
2023-02-22T20:03:54.722Z,8.80
2023-02-22T20:06:26.357Z,8.70
2023-02-22T20:08:54.590Z,8.70
2023-02-22T20:11:22.838Z,8.60
2023-02-22T20:13:49.678Z,8.50
2023-02-22T20:16:16.674Z,8.40
2023-02-22T20:18:48.128Z,8.40
2023-02-22T20:21:27.655Z,8.30
2023-02-22T20:23:57.241Z,8.30
2023-02-22T20:26:25.653Z,8.30
2023-02-22T20:28:52.967Z,8.20
2023-02-22T20:31:21.286Z,8.20
2023-02-22T20:33:52.456Z,8.20
2023-02-22T20:36:22.180Z,8.10
2023-02-22T20:38:55.558Z,8.10
2023-02-22T20:41:30.983Z,8.20
2023-02-22T20:43:59.554Z,8.20
2023-02-22T20:46:28.238Z,8.10
2023-02-22T20:48:56.096Z,8.00
2023-02-22T20:51:23.017Z,8.00
2023-02-22T20:53:50.229Z,8.00
2023-02-22T20:56:19.510Z,7.90
2023-02-22T20:58:46.874Z,7.90
2023-02-22T21:01:19.575Z,7.80
2023-02-22T21:03:46.979Z,7.80
2023-02-22T21:06:17.657Z,7.70
2023-02-22T21:08:49.208Z,7.70
2023-02-22T21:11:18.281Z,7.70
2023-02-22T21:13:45.248Z,7.60
2023-02-22T21:16:29.990Z,7.60
2023-02-22T21:18:59.572Z,7.60
2023-02-22T21:21:27.586Z,7.60
2023-02-22T21:23:56.509Z,7.60
2023-02-22T21:26:27.460Z,7.50
2023-02-22T21:28:55.884Z,7.50
2023-02-22T21:31:24.743Z,7.50
2023-02-22T21:33:54.438Z,7.50
2023-02-22T21:36:25.384Z,7.60
2023-02-22T21:38:55.558Z,7.60
2023-02-22T21:41:27.360Z,7.70
2023-02-22T21:43:55.540Z,7.70
2023-02-22T21:46:22.975Z,7.70
2023-02-22T21:48:49.942Z,7.70
2023-02-22T21:51:23.303Z,7.60
2023-02-22T21:53:52.597Z,7.60
2023-02-22T21:56:24.262Z,7.60
2023-02-22T21:58:59.111Z,7.60
2023-02-22T22:01:28.482Z,7.50
2023-02-22T22:03:56.745Z,7.50
2023-02-22T22:06:23.631Z,7.40
2023-02-22T22:08:50.509Z,7.30
2023-02-22T22:11:18.031Z,7.30
2023-02-22T22:13:45.108Z,7.30
2023-02-22T22:16:18.304Z,7.30
2023-02-22T22:18:46.807Z,7.30
2023-02-22T22:21:20.561Z,7.40
2023-02-22T22:23:48.237Z,7.30
2023-02-22T22:26:17.764Z,7.30
2023-02-22T22:28:48.499Z,7.20
2023-02-22T22:31:17.456Z,7.20
2023-02-22T22:33:45.577Z,7.10
2023-02-22T22:36:14.444Z,7.10
2023-02-22T22:38:41.509Z,7.00
2023-02-22T22:41:13.198Z,7.10
2023-02-22T22:43:41.430Z,7.00
2023-02-22T22:46:08.826Z,7.00
2023-02-22T22:48:39.041Z,7.00
2023-02-22T22:51:11.815Z,7.00
2023-02-22T22:53:41.184Z,7.00
2023-02-22T22:56:17.460Z,6.90
2023-02-22T22:58:51.954Z,6.90
2023-02-22T23:01:26.848Z,6.90
2023-02-22T23:04:01.694Z,7.00
2023-02-22T23:06:32.889Z,7.00
2023-02-22T23:09:10.360Z,6.90
2023-02-22T23:11:45.434Z,6.90
2023-02-22T23:14:21.825Z,6.90
2023-02-22T23:16:50.603Z,6.90
2023-02-22T23:19:19.291Z,6.90
2023-02-22T23:21:50.210Z,6.90
2023-02-22T23:24:20.724Z,6.80
2023-02-22T23:26:50.952Z,6.80
2023-02-22T23:29:19.962Z,6.80
2023-02-22T23:31:48.604Z,6.80
2023-02-22T23:34:21.196Z,6.70
2023-02-22T23:36:48.647Z,6.70
2023-02-22T23:39:17.614Z,6.60
2023-02-22T23:41:44.373Z,6.60
2023-02-22T23:44:16.776Z,6.50
2023-02-22T23:46:48.852Z,6.50
2023-02-22T23:49:20.649Z,6.60
2023-02-22T23:51:48.554Z,6.50
2023-02-22T23:54:19.246Z,6.50
2023-02-22T23:56:53.618Z,6.50
2023-02-22T23:59:20.353Z,6.50
